createdAt,value
2022-12-07T00:01:45.152Z,16.10
2022-12-07T00:04:16.163Z,14.32
2022-12-07T00:06:45.898Z,12.93
2022-12-07T00:09:16.005Z,12.85
2022-12-07T00:11:44.069Z,14.25
2022-12-07T00:14:15.600Z,15.57
2022-12-07T00:16:46.314Z,14.63
2022-12-07T00:19:15.308Z,16.17
2022-12-07T00:21:44.019Z,13.90
2022-12-07T00:24:13.602Z,11.95
2022-12-07T00:26:42.903Z,12.70
2022-12-07T00:29:15.398Z,12.95
2022-12-07T00:31:44.824Z,14.65
2022-12-07T00:34:16.109Z,9.95
2022-12-07T00:36:44.138Z,11.20
2022-12-07T00:39:12.503Z,10.90
2022-12-07T00:41:40.365Z,11.63
2022-12-07T00:44:08.409Z,10.38
2022-12-07T00:46:36.675Z,10.35
2022-12-07T00:49:05.966Z,9.23
2022-12-07T00:51:33.744Z,9.73
2022-12-07T00:54:01.833Z,9.48
2022-12-07T00:56:31.405Z,13.77
2022-12-07T00:59:01.023Z,10.88
2022-12-07T01:01:31.551Z,8.57
2022-12-07T01:04:00.028Z,11.10
2022-12-07T01:06:29.770Z,10.25
2022-12-07T01:08:58.255Z,9.07
2022-12-07T01:11:29.927Z,9.35
2022-12-07T01:14:00.138Z,13.05
2022-12-07T01:16:32.359Z,10.77
2022-12-07T01:19:01.392Z,9.38
2022-12-07T01:21:35.642Z,10.43
2022-12-07T01:24:04.488Z,14.80
2022-12-07T01:26:32.569Z,10.07
2022-12-07T01:29:01.837Z,12.25
2022-12-07T01:31:30.541Z,13.88
2022-12-07T01:34:01.303Z,13.73
2022-12-07T01:36:32.312Z,11.25
2022-12-07T01:39:02.351Z,11.52
2022-12-07T01:41:33.023Z,12.20
2022-12-07T01:44:13.192Z,12.93
2022-12-07T01:46:42.351Z,11.95
2022-12-07T01:49:14.888Z,10.95
2022-12-07T01:51:45.691Z,11.55
2022-12-07T01:54:17.029Z,14.27
2022-12-07T01:56:51.026Z,11.15
2022-12-07T01:59:21.886Z,10.55
2022-12-07T02:01:50.300Z,13.35
2022-12-07T02:04:18.721Z,11.98
2022-12-07T02:06:49.363Z,10.32
2022-12-07T02:09:17.443Z,9.77
2022-12-07T02:11:45.497Z,10.23
2022-12-07T02:14:13.569Z,13.43
2022-12-07T02:16:54.015Z,17.00
2022-12-07T02:19:58.122Z,11.30
2022-12-07T02:22:50.190Z,11.05
2022-12-07T02:25:25.935Z,15.77
2022-12-07T02:27:59.016Z,10.77
2022-12-07T02:30:33.252Z,10.00
2022-12-07T02:33:06.261Z,13.07
2022-12-07T02:35:41.378Z,12.35
2022-12-07T02:38:17.000Z,11.98
2022-12-07T02:40:50.223Z,11.40
2022-12-07T02:43:22.174Z,10.07
2022-12-07T02:45:53.925Z,10.00
2022-12-07T02:48:22.830Z,10.32
2022-12-07T02:50:51.739Z,10.32
2022-12-07T02:53:34.312Z,8.05
2022-12-07T02:56:08.164Z,11.68
2022-12-07T02:58:48.560Z,7.78
2022-12-07T03:01:29.385Z,11.27
2022-12-07T03:04:09.216Z,8.50
2022-12-07T03:06:44.748Z,9.65
2022-12-07T03:09:21.149Z,7.45
2022-12-07T03:11:53.845Z,9.02
2022-12-07T03:14:25.408Z,10.10
2022-12-07T03:17:00.766Z,9.90
2022-12-07T03:19:29.833Z,9.05
2022-12-07T03:22:01.904Z,13.25
2022-12-07T03:24:33.191Z,8.43
2022-12-07T03:27:07.734Z,8.93
2022-12-07T03:29:40.018Z,9.35
2022-12-07T03:32:12.470Z,8.30
2022-12-07T03:34:46.911Z,8.45
2022-12-07T03:37:20.965Z,8.88
2022-12-07T03:39:59.825Z,7.78
2022-12-07T03:42:28.573Z,5.82
2022-12-07T03:44:56.609Z,8.88
2022-12-07T03:47:31.811Z,7.75
2022-12-07T03:50:05.133Z,8.82
2022-12-07T03:52:38.544Z,4.75
2022-12-07T03:55:11.064Z,5.97
2022-12-07T03:57:41.624Z,5.07
2022-12-07T04:00:11.753Z,9.05
2022-12-07T04:02:44.611Z,6.47
2022-12-07T04:05:12.703Z,5.88
2022-12-07T04:07:40.812Z,8.88
2022-12-07T04:10:09.740Z,6.10
2022-12-07T04:12:37.564Z,8.15
2022-12-07T04:15:06.422Z,5.75
2022-12-07T04:17:34.313Z,9.63
2022-12-07T04:20:05.056Z,9.05
2022-12-07T04:22:33.248Z,7.38
2022-12-07T04:25:01.137Z,7.47
2022-12-07T04:27:29.286Z,7.07
2022-12-07T04:29:57.244Z,12.50
2022-12-07T04:32:25.749Z,8.88
2022-12-07T04:34:55.874Z,7.90
2022-12-07T04:37:25.845Z,5.72
2022-12-07T04:39:53.682Z,6.70
2022-12-07T04:42:21.466Z,6.45
2022-12-07T04:44:49.328Z,7.80
2022-12-07T04:47:17.245Z,9.05
2022-12-07T04:49:45.430Z,5.80
2022-12-07T04:52:13.257Z,8.50
2022-12-07T04:54:42.661Z,9.07
2022-12-07T04:57:10.537Z,12.75
2022-12-07T04:59:43.760Z,9.02
2022-12-07T05:02:13.620Z,9.55
2022-12-07T05:04:41.515Z,5.78
2022-12-07T05:07:09.443Z,12.70
2022-12-07T05:09:37.367Z,11.57
2022-12-07T05:12:06.788Z,10.40
2022-12-07T05:14:34.680Z,7.28
2022-12-07T05:17:02.574Z,8.07
2022-12-07T05:19:30.485Z,4.53
2022-12-07T05:21:58.426Z,10.85
2022-12-07T05:24:26.303Z,9.15
2022-12-07T05:26:54.407Z,6.78
2022-12-07T05:29:23.854Z,9.18
2022-12-07T05:31:52.153Z,8.40
2022-12-07T05:34:20.186Z,8.32
2022-12-07T05:36:48.244Z,5.65
2022-12-07T05:39:16.528Z,7.40
2022-12-07T05:42:02.175Z,5.25
2022-12-07T05:44:31.882Z,4.97
2022-12-07T05:47:00.000Z,8.32
2022-12-07T05:49:28.026Z,7.65
2022-12-07T05:51:56.074Z,8.98
2022-12-07T05:54:25.343Z,6.53
2022-12-07T05:56:53.541Z,8.07
2022-12-07T05:59:28.168Z,8.30
2022-12-07T06:01:59.855Z,3.13
2022-12-07T06:04:30.604Z,9.23
2022-12-07T06:06:59.380Z,9.07
2022-12-07T06:09:29.353Z,5.97
2022-12-07T06:12:16.313Z,6.43
2022-12-07T06:14:45.197Z,4.57
2022-12-07T06:17:19.710Z,6.05
2022-12-07T06:19:47.853Z,7.68
2022-12-07T06:22:17.289Z,7.70
2022-12-07T06:24:45.390Z,6.70
2022-12-07T06:27:15.174Z,4.65
2022-12-07T06:29:43.161Z,5.32
2022-12-07T06:32:11.236Z,6.57
2022-12-07T06:34:41.163Z,3.33
2022-12-07T06:37:09.123Z,2.97
2022-12-07T06:39:37.176Z,2.15
2022-12-07T06:42:05.497Z,3.97
2022-12-07T06:44:33.938Z,4.40
2022-12-07T06:47:31.987Z,5.95
2022-12-07T06:49:52.846Z,3.78
2022-12-07T06:52:21.091Z,5.28
2022-12-07T06:54:49.547Z,5.75
2022-12-07T06:57:18.167Z,6.43
2022-12-07T06:59:46.657Z,5.45
2022-12-07T07:02:15.153Z,4.38
2022-12-07T07:04:45.491Z,6.72
2022-12-07T07:07:15.773Z,6.15
2022-12-07T07:09:44.245Z,4.97
2022-12-07T07:12:12.572Z,13.10
2022-12-07T07:14:40.805Z,8.27
2022-12-07T07:17:09.036Z,7.10
2022-12-07T07:19:39.023Z,4.35
2022-12-07T07:22:08.160Z,2.92
2022-12-07T07:24:39.019Z,2.53
2022-12-07T07:27:07.193Z,4.57
2022-12-07T08:35:33.490Z,0.45
2022-12-07T08:38:03.792Z,3.85
2022-12-07T08:40:36.768Z,1.45
2022-12-07T08:43:15.283Z,2.90
2022-12-07T08:46:00.671Z,0.68
2022-12-07T10:18:34.135Z,0.88
2022-12-07T10:21:06.932Z,0.05
2022-12-07T10:23:37.408Z,2.60
2022-12-07T10:26:29.539Z,0.45
2022-12-07T10:28:58.913Z,1.05
2022-12-07T10:31:27.583Z,1.55
2022-12-07T10:37:25.977Z,4.70
2022-12-07T10:40:00.157Z,1.27
2022-12-07T10:42:30.494Z,2.42
2022-12-07T10:45:11.378Z,8.05
2022-12-07T10:47:46.586Z,2.78
2022-12-07T10:50:37.351Z,5.50
2022-12-07T10:53:40.886Z,8.20
2022-12-07T10:56:32.165Z,2.97
2022-12-07T10:59:17.787Z,0.90
2022-12-07T11:01:52.949Z,4.95
2022-12-07T11:04:30.786Z,4.90
2022-12-07T11:07:08.870Z,2.22
2022-12-07T11:10:10.935Z,3.53
2022-12-07T11:12:57.992Z,1.55
2022-12-07T11:15:32.373Z,0.35
2022-12-07T11:18:08.146Z,2.17
2022-12-07T11:20:45.579Z,1.08
2022-12-07T11:23:26.489Z,0.50
2022-12-07T11:26:02.713Z,5.18
2022-12-07T11:28:50.990Z,0.45
2022-12-07T11:31:30.734Z,4.88
2022-12-07T11:34:07.836Z,1.55
2022-12-07T11:36:45.533Z,1.25
2022-12-07T11:39:27.772Z,0.10
2022-12-07T11:42:06.396Z,0.38
2022-12-07T11:44:42.758Z,0.20
2022-12-07T11:47:17.543Z,0.95
2022-12-07T11:49:49.997Z,1.13
2022-12-07T11:52:27.864Z,1.65
2022-12-07T11:54:56.571Z,1.17
2022-12-07T11:57:33.631Z,0.63
2022-12-07T12:00:07.512Z,0.03
2022-12-07T12:02:43.372Z,1.92
2022-12-07T12:05:19.773Z,1.17
2022-12-07T12:10:49.116Z,3.45
2022-12-07T12:16:48.045Z,2.85
2022-12-07T12:19:29.145Z,5.53
2022-12-07T12:22:11.930Z,1.33
2022-12-07T12:24:42.121Z,4.22
2022-12-07T12:27:20.949Z,3.50
2022-12-07T12:29:56.740Z,4.22
2022-12-07T12:32:39.226Z,1.88
2022-12-07T12:35:31.618Z,0.68
2022-12-07T12:38:32.161Z,3.78
2022-12-07T12:41:00.671Z,6.55
2022-12-07T12:43:59.645Z,3.58
2022-12-07T12:46:53.735Z,7.43
2022-12-07T12:50:13.290Z,1.33
2022-12-07T12:53:04.473Z,1.33
2022-12-07T12:56:06.058Z,3.10
2022-12-07T12:58:40.473Z,1.73
2022-12-07T13:01:39.832Z,0.73
2022-12-07T13:04:34.261Z,2.80
2022-12-07T13:07:04.431Z,2.78
2022-12-07T13:09:37.271Z,4.22
2022-12-07T13:12:13.691Z,2.58
2022-12-07T13:14:56.978Z,2.22
2022-12-07T13:18:02.127Z,0.77
2022-12-07T13:20:50.805Z,4.05
2022-12-07T13:23:26.439Z,3.03
2022-12-07T13:26:03.395Z,3.88
2022-12-07T13:28:40.369Z,1.65
2022-12-07T13:31:30.554Z,0.22
2022-12-07T13:33:58.853Z,1.45
2022-12-07T13:36:28.856Z,6.78
2022-12-07T13:39:00.326Z,6.68
2022-12-07T13:41:29.523Z,1.50
2022-12-07T13:44:04.047Z,0.30
2022-12-07T13:46:48.105Z,0.57
2022-12-07T13:49:22.517Z,6.07
2022-12-07T13:51:51.281Z,3.92
2022-12-07T13:54:22.033Z,2.15
2022-12-07T13:56:53.097Z,1.77
2022-12-07T13:59:23.210Z,1.15
2022-12-07T14:01:53.539Z,6.78
2022-12-07T14:04:33.271Z,2.22
2022-12-07T14:07:02.990Z,4.72
2022-12-07T14:09:32.744Z,4.18
2022-12-07T14:12:01.339Z,2.05
2022-12-07T14:14:36.690Z,2.67
2022-12-07T14:17:17.691Z,3.35
2022-12-07T14:19:56.094Z,1.33
2022-12-07T14:22:27.588Z,2.50
2022-12-07T14:25:23.098Z,4.10
2022-12-07T14:27:57.298Z,1.25
2022-12-07T14:30:28.122Z,0.85
2022-12-07T14:33:00.001Z,0.45
2022-12-07T14:35:28.555Z,1.65
2022-12-07T14:37:57.017Z,5.28
2022-12-07T14:40:31.262Z,1.58
2022-12-07T14:43:10.715Z,3.03
2022-12-07T14:45:40.763Z,1.20
2022-12-07T14:53:57.297Z,5.15
2022-12-07T14:56:28.800Z,1.85
2022-12-07T14:58:57.192Z,6.30
2022-12-07T15:01:25.239Z,1.05
2022-12-07T15:03:53.539Z,2.00
2022-12-07T15:06:21.736Z,1.75
2022-12-07T15:08:49.981Z,8.55
2022-12-07T15:11:20.530Z,4.57
2022-12-07T15:14:07.907Z,4.93
2022-12-07T15:17:06.904Z,0.93
2022-12-07T15:19:28.834Z,6.20
2022-12-07T15:22:01.780Z,2.08
2022-12-07T15:24:30.568Z,1.83
2022-12-07T15:26:59.578Z,2.47
2022-12-07T15:29:30.951Z,5.60
2022-12-07T15:31:59.571Z,3.40
2022-12-07T15:34:36.491Z,0.90
2022-12-07T15:37:10.481Z,3.00
2022-12-07T15:39:40.086Z,4.22
2022-12-07T15:42:08.204Z,1.20
2022-12-07T15:44:55.571Z,3.45
2022-12-07T15:47:24.239Z,2.45
2022-12-07T15:49:52.762Z,3.42
2022-12-07T15:52:21.598Z,2.20
2022-12-07T15:54:50.243Z,0.57
2022-12-07T15:57:25.007Z,0.73
2022-12-07T15:59:55.133Z,0.63
2022-12-07T16:02:23.767Z,7.43
2022-12-07T16:04:52.303Z,1.55
2022-12-07T16:07:20.491Z,2.15
2022-12-07T16:09:50.438Z,2.67
2022-12-07T16:12:18.919Z,8.80
2022-12-07T16:14:47.707Z,4.75
2022-12-07T16:17:17.201Z,1.60
2022-12-07T16:19:45.312Z,1.30
2022-12-07T16:22:13.427Z,4.13
2022-12-07T16:24:41.595Z,1.27
2022-12-07T16:27:10.065Z,4.85
2022-12-07T16:29:38.153Z,5.70
2022-12-07T16:32:06.612Z,5.05
2022-12-07T16:34:36.375Z,6.35
2022-12-07T16:37:05.598Z,3.25
2022-12-07T16:39:35.073Z,2.40
2022-12-07T16:42:03.453Z,1.27
2022-12-07T16:44:31.765Z,2.88
2022-12-07T16:46:59.986Z,2.47
2022-12-07T16:49:29.977Z,2.55
2022-12-07T16:54:51.619Z,2.83
2022-12-07T16:57:23.956Z,4.32
2022-12-07T16:59:54.793Z,3.55
2022-12-07T17:02:23.003Z,2.95
2022-12-07T17:04:52.450Z,2.65
2022-12-07T17:07:21.854Z,2.78
2022-12-07T17:09:49.949Z,3.65
2022-12-07T17:12:19.735Z,1.55
2022-12-07T17:15:05.351Z,2.08
2022-12-07T17:17:33.694Z,0.93
2022-12-07T17:20:01.779Z,3.03
2022-12-07T17:22:31.025Z,5.10
2022-12-07T17:24:59.123Z,1.00
2022-12-07T17:27:27.047Z,4.68
2022-12-07T17:29:54.923Z,3.72
2022-12-07T17:32:22.839Z,4.82
2022-12-07T17:34:50.879Z,4.00
2022-12-07T17:37:18.790Z,7.53
2022-12-07T17:39:48.046Z,4.07
2022-12-07T17:42:33.752Z,4.28
2022-12-07T17:45:02.170Z,6.93
2022-12-07T17:47:30.817Z,0.10
2022-12-07T17:50:04.897Z,0.32
2022-12-07T17:52:52.486Z,4.35
2022-12-07T17:55:22.045Z,2.72
2022-12-07T17:57:50.048Z,1.58
2022-12-07T18:00:19.450Z,0.05
2022-12-07T18:02:47.414Z,0.08
2022-12-07T18:05:15.673Z,0.85
2022-12-07T18:07:43.771Z,2.72
2022-12-07T18:10:12.320Z,2.70
2022-12-07T18:12:41.862Z,1.50
2022-12-07T18:15:10.537Z,1.02
2022-12-07T18:17:38.448Z,0.75
2022-12-07T18:20:08.099Z,0.90
2022-12-07T18:22:37.560Z,4.75
2022-12-07T18:25:06.375Z,1.15
2022-12-07T18:27:34.642Z,3.47
2022-12-07T18:30:03.952Z,1.90
2022-12-07T18:32:31.861Z,1.23
2022-12-07T18:34:59.987Z,2.33
2022-12-07T18:37:28.562Z,4.75
2022-12-07T18:39:58.270Z,5.75
2022-12-07T18:42:26.399Z,3.65
2022-12-07T18:44:54.677Z,4.00
2022-12-07T18:47:35.437Z,1.35
2022-12-07T18:50:03.964Z,3.35
2022-12-07T18:52:32.184Z,4.53
2022-12-07T18:55:02.062Z,6.85
2022-12-07T18:57:33.288Z,9.95
2022-12-07T19:00:01.287Z,2.38
2022-12-07T19:02:30.696Z,9.52
2022-12-07T19:04:58.824Z,4.43
2022-12-07T19:07:27.064Z,7.90
2022-12-07T19:10:04.163Z,5.00
2022-12-07T19:12:32.429Z,3.65
2022-12-07T19:15:00.904Z,7.35
2022-12-07T19:17:33.841Z,2.70
2022-12-07T19:20:02.819Z,8.15
2022-12-07T19:22:30.921Z,3.67
2022-12-07T19:24:59.312Z,2.42
2022-12-07T19:27:28.281Z,7.30
2022-12-07T19:29:56.779Z,6.53
2022-12-07T19:32:25.651Z,1.98
2022-12-07T19:34:56.204Z,4.70
2022-12-07T19:37:24.447Z,7.47
2022-12-07T19:39:53.396Z,4.72
2022-12-07T19:42:24.575Z,3.35
2022-12-07T19:44:52.496Z,3.75
2022-12-07T19:47:21.872Z,2.83
2022-12-07T19:49:49.923Z,1.55
2022-12-07T19:52:19.696Z,7.18
2022-12-07T19:54:47.955Z,4.70
2022-12-07T19:57:18.151Z,1.85
2022-12-07T19:59:46.744Z,4.47
2022-12-07T20:05:24.458Z,2.88
2022-12-07T20:07:53.972Z,3.30
2022-12-07T20:10:26.086Z,2.97
2022-12-07T20:13:11.593Z,2.33
2022-12-07T20:15:41.523Z,0.88
2022-12-07T20:18:09.674Z,2.03
2022-12-07T20:20:37.879Z,2.97
2022-12-07T20:23:07.658Z,1.85
2022-12-07T20:25:36.929Z,2.13
2022-12-07T20:28:05.581Z,2.70
2022-12-07T20:30:33.607Z,3.22
2022-12-07T20:33:01.653Z,2.20
2022-12-07T20:35:30.685Z,3.88
2022-12-07T20:37:58.736Z,0.75
2022-12-07T20:40:28.031Z,5.78
2022-12-07T20:42:55.956Z,1.38
2022-12-07T20:45:24.248Z,3.53
2022-12-07T20:47:52.273Z,8.05
2022-12-07T20:50:20.687Z,3.65
2022-12-07T20:52:48.910Z,6.22
2022-12-07T20:55:16.886Z,2.38
2022-12-07T20:57:46.859Z,5.57
2022-12-07T21:00:16.117Z,2.20
2022-12-07T21:02:44.272Z,2.95
2022-12-07T21:05:12.898Z,0.85
2022-12-07T21:07:41.380Z,2.15
2022-12-07T21:10:13.316Z,1.95
2022-12-07T21:12:43.417Z,2.35
2022-12-07T21:15:13.069Z,5.47
2022-12-07T21:17:41.249Z,6.30
2022-12-07T21:20:10.414Z,1.20
2022-12-07T21:22:38.760Z,1.52
2022-12-07T21:25:07.197Z,3.72
2022-12-07T21:27:35.605Z,1.98
2022-12-07T21:30:04.029Z,2.13
2022-12-07T21:32:33.723Z,2.08
2022-12-07T21:35:02.260Z,1.40
2022-12-07T21:37:31.065Z,7.03
2022-12-07T21:39:59.208Z,1.50
2022-12-07T21:42:27.530Z,2.17
2022-12-07T21:44:55.691Z,5.30
2022-12-07T21:47:23.873Z,4.53
2022-12-07T21:49:53.204Z,3.30
2022-12-07T21:52:21.181Z,4.95
2022-12-07T21:54:49.301Z,5.40
2022-12-07T21:57:17.379Z,4.03
2022-12-07T21:59:45.385Z,2.80
2022-12-07T22:02:15.141Z,2.15
2022-12-07T22:04:43.209Z,2.03
2022-12-07T22:07:12.706Z,6.93
2022-12-07T22:09:40.890Z,2.83
2022-12-07T22:12:09.236Z,4.15
2022-12-07T22:14:54.453Z,3.22
2022-12-07T22:17:22.643Z,1.33
2022-12-07T22:19:50.714Z,1.02
2022-12-07T22:22:20.298Z,2.72
2022-12-07T22:24:49.378Z,2.60
2022-12-07T22:27:18.226Z,2.67
2022-12-07T22:29:46.370Z,2.80
2022-12-07T22:32:46.441Z,2.90
2022-12-07T22:35:03.223Z,5.88
2022-12-07T22:37:42.611Z,1.63
2022-12-07T22:40:12.552Z,3.75
2022-12-07T22:42:41.781Z,2.67
2022-12-07T22:45:12.163Z,3.75
2022-12-07T22:47:41.230Z,4.13
2022-12-07T22:50:10.511Z,7.90
2022-12-07T22:52:39.407Z,5.57
2022-12-07T22:55:11.930Z,9.13
2022-12-07T22:57:41.530Z,6.07
2022-12-07T23:00:11.991Z,5.10
2022-12-07T23:02:40.827Z,3.80
2022-12-07T23:05:10.107Z,3.40
2022-12-07T23:07:38.925Z,4.38
2022-12-07T23:10:10.976Z,4.97
2022-12-07T23:12:56.806Z,8.68
2022-12-07T23:15:25.341Z,6.63
2022-12-07T23:17:53.893Z,7.22
2022-12-07T23:20:22.410Z,4.85
2022-12-07T23:22:50.697Z,6.40
2022-12-07T23:25:20.361Z,7.78
2022-12-07T23:27:48.480Z,3.97
2022-12-07T23:30:17.037Z,5.63
2022-12-07T23:32:45.319Z,5.15
2022-12-07T23:35:13.313Z,2.53
2022-12-07T23:37:41.388Z,5.82
2022-12-07T23:40:10.655Z,5.75
2022-12-07T23:42:40.190Z,4.20
2022-12-07T23:45:09.423Z,4.03
2022-12-07T23:47:37.393Z,4.20
2022-12-07T23:50:06.581Z,3.53
2022-12-07T23:52:34.584Z,6.43
2022-12-07T23:55:02.786Z,2.85
2022-12-07T23:57:33.263Z,4.40
